X

Important NEWS



New Hub Active

Miami is our new hub! Old members can request transfer via hr@dlxairways.net

Thank you very much and have nice flight.


Deluxe Airways.

X

Tours



Hello again, we created one nice test tour for all pilots to attend. also this is ment to be testing of our tour system

Available Tours

If you find some issues please inform us.

Thank you very much and have nice flight.


Deluxe Airways.

 METAR AND TAF INFORMATION
ArrayMETAR FOR LMML
16818554 3 LMML 291415Z 19009KT 160V260 9999 FEW042 22/11 Q1018 NOSIG LMML 2020-05-29T14:15:00Z 35.85 14.47 22.0 11.0 190 9 6.21 30.059055 TRUE VFR METAR 91.0 LMML 291345Z 20009KT 170V250 9999 FEW040 22/11 Q1019 NOSIG LMML 2020-05-29T13:45:00Z 35.85 14.47 22.0 11.0 200 9 6.21 30.088583 TRUE VFR METAR 91.0 LMML 291315Z 21009KT 150V260 9999 FEW041 23/11 Q1019 NOSIG LMML 2020-05-29T13:15:00Z 35.85 14.47 23.0 11.0 210 9 6.21 30.088583 TRUE VFR METAR 91.0 LMML 291245Z 20010KT 160V240 9999 FEW041 23/11 Q1019 NOSIG LMML 2020-05-29T12:45:00Z 35.85 14.47 23.0 11.0 200 10 6.21 30.088583 TRUE VFR METAR 91.0

 AIRPORT MAP

 RUNWAY INFORMATION
Runway 05 Runway length 7799 ft Runway width 148 ft
Runway elevation 297 ft Runway displaced threshold 0 ft Runway heading 56
Runway 23 Runway length 7799 ft Runway width 148 ft
Runway elevation 247 ft Runway displaced threshold 0 ft Runway heading 236
Runway 13 Runway length 11627 ft Runway width 197 ft
Runway elevation 256 ft Runway displaced threshold 0 ft Runway heading 135
Runway 31 Runway length 11627 ft Runway width 197 ft
Runway elevation 230 ft Runway displaced threshold 620 ft Runway heading 315

 AIRPORT FREQUENCIES
Type APP Name APP Frequency 128.15 MHZ
Type Distance R Name Frequency 130.975 MHZ
Type Ground Name Ground Frequency 121.6 MHZ
Type Leaving Name Frequency 123.625 MHZ
Type Runway Name Runway Frequency 138.1 MHZ
Type Volmet Name Frequency 126.8 MHZ
Type Weather Name WX Frequency 127.4 MHZ

 AIRPORT NEAR NAVIGATION AIDS
Type DME Name Malta Frequency 110500 KHZ
Type DME Name Luqa Frequency 109700 KHZ
Type NDB Name Luqa Frequency 416 KHZ
Type NDB Name Malta Frequency 395 KHZ



Powered by Virtual Airlines Manager [v2.6.2]

Template code change by DeluxeAir